Time;durP1;ratioP1;P1;durP2;ratioP2;P2;SDS_P1;SDS_P2;PMS_P1;PMS_P2;Temp;Humidity;BMP_temperature;BMP_pressure;BME280_temperature;BME280_humidity;BME280_pressure;Samples;Min_cycle;Max_cycle;Signal;HPM_P1;HPM_P2
2023/01/16 00:01:50;;;;;;;2.08;1.10;;;;;;;;;;5016467;28;20036;-80
2023/01/16 00:04:15;;;;;;;2.85;1.23;;;;;;;;;;5033955;28;20028;-80
2023/01/16 00:06:40;;;;;;;1.65;1.05;;;;;;;;;;5016422;28;20037;-79
2023/01/16 00:09:06;;;;;;;1.77;1.00;;;;;;;;;;5016136;28;20136;-80
2023/01/16 00:11:31;;;;;;;1.55;1.05;;;;;;;;;;5016270;28;20113;-79
2023/01/16 00:13:58;;;;;;;4.03;1.27;;;;;;;;;;5016356;28;20108;-79
2023/01/16 00:16:24;;;;;;;3.15;1.17;;;;;;;;;;5016174;28;20081;-80
2023/01/16 00:18:49;;;;;;;1.90;1.13;;;;;;;;;;5033442;28;20057;-80
2023/01/16 00:21:15;;;;;;;1.50;0.90;;;;;;;;;;5016558;28;20029;-80
2023/01/16 00:23:40;;;;;;;2.15;1.02;;;;;;;;;;5015928;28;20480;-79
2023/01/16 00:26:07;;;;;;;2.47;1.10;;;;;;;;;;5033800;28;20519;-79
2023/01/16 00:28:32;;;;;;;2.63;1.30;;;;;;;;;;4999365;28;20480;-79
2023/01/16 00:30:58;;;;;;;1.27;1.00;;;;;;;;;;5033466;28;20029;-80
2023/01/16 00:33:23;;;;;;;2.53;1.10;;;;;;;;;;5033635;28;20029;-80
2023/01/16 00:35:49;;;;;;;2.75;1.23;;;;;;;;;;5015798;28;20040;-79
2023/01/16 00:38:14;;;;;;;2.70;1.30;;;;;;;;;;5033498;28;20029;-80
2023/01/16 00:40:40;;;;;;;3.67;1.10;;;;;;;;;;5033464;28;20377;-80
2023/01/16 00:43:05;;;;;;;0.95;0.93;;;;;;;;;;5015638;28;20124;-80
2023/01/16 00:45:31;;;;;;;1.33;1.00;;;;;;;;;;5033709;28;20037;-79
2023/01/16 00:47:58;;;;;;;2.88;0.98;;;;;;;;;;5033205;28;20037;-79
2023/01/16 00:50:23;;;;;;;0.80;0.77;;;;;;;;;;5016339;28;20033;-80
2023/01/16 00:52:49;;;;;;;1.23;0.93;;;;;;;;;;5033192;28;20396;-80
2023/01/16 00:55:14;;;;;;;2.08;0.80;;;;;;;;;;5033292;28;20116;-80
2023/01/16 00:57:39;;;;;;;1.52;1.00;;;;;;;;;;5033218;28;20033;-79
2023/01/16 01:00:06;;;;;;;3.65;1.05;;;;;;;;;;5015945;28;20388;-79
2023/01/16 01:02:31;;;;;;;1.73;0.98;;;;;;;;;;5015412;28;20037;-79
2023/01/16 01:04:56;;;;;;;1.08;0.77;;;;;;;;;;5033026;28;20029;-79
2023/01/16 01:07:22;;;;;;;1.27;0.90;;;;;;;;;;5033222;28;20445;-79
2023/01/16 01:09:47;;;;;;;1.23;0.85;;;;;;;;;;5015438;28;20030;-80
2023/01/16 01:12:12;;;;;;;1.55;0.90;;;;;;;;;;5032879;28;20021;-79
2023/01/16 01:14:38;;;;;;;17.88;1.23;;;;;;;;;;5015284;28;20036;-79
2023/01/16 01:17:03;;;;;;;1.20;0.93;;;;;;;;;;5014954;28;20054;-80
2023/01/16 01:19:29;;;;;;;0.73;0.73;;;;;;;;;;5033186;28;20037;-80
2023/01/16 01:21:54;;;;;;;1.00;0.90;;;;;;;;;;5032993;28;20483;-80
2023/01/16 01:24:19;;;;;;;1.42;0.95;;;;;;;;;;5015109;28;20030;-80
2023/01/16 01:26:46;;;;;;;5.05;1.20;;;;;;;;;;5033338;28;20063;-80
2023/01/16 01:29:11;;;;;;;1.30;0.93;;;;;;;;;;5015378;28;20037;-80
2023/01/16 01:31:36;;;;;;;1.95;0.90;;;;;;;;;;5036997;28;20025;-80
2023/01/16 01:34:02;;;;;;;1.00;0.82;;;;;;;;;;5037179;28;20025;-81
2023/01/16 01:36:27;;;;;;;1.05;0.90;;;;;;;;;;5036752;28;20074;-80
2023/01/16 01:38:53;;;;;;;2.60;0.90;;;;;;;;;;5036976;28;20400;-80
2023/01/16 01:41:18;;;;;;;0.80;0.80;;;;;;;;;;5036685;28;20035;-80
2023/01/16 01:43:52;;;;;;;1.55;0.90;;;;;;;;;;5036646;28;20029;-80
2023/01/16 01:46:17;;;;;;;3.78;1.05;;;;;;;;;;5036983;28;20068;-79
2023/01/16 01:48:42;;;;;;;1.55;1.13;;;;;;;;;;5036586;28;20065;-80
2023/01/16 01:51:10;;;;;;;1.25;0.90;;;;;;;;;;5036600;28;20060;-79
2023/01/16 01:53:44;;;;;;;1.48;0.80;;;;;;;;;;5002227;28;20396;-80
2023/01/16 01:56:20;;;;;;;;;;;;;;;;;;5019651;28;20056;-78
2023/01/16 01:58:49;;;;;;;2.35;0.90;;;;;;;;;;5036624;28;19916;-81
2023/01/16 02:01:14;;;;;;;0.80;0.80;;;;;;;;;;5018856;28;20029;-80
2023/01/16 02:03:42;;;;;;;1.92;1.33;;;;;;;;;;5036179;28;20044;-80
2023/01/16 02:06:14;;;;;;;1.58;0.90;;;;;;;;;;5018731;28;20427;-81
2023/01/16 02:08:44;;;;;;;1.15;0.85;;;;;;;;;;5018758;28;20018;-80
2023/01/16 02:11:25;;;;;;;1.15;1.00;;;;;;;;;;5019083;28;20044;-80
2023/01/16 02:14:00;;;;;;;1.55;1.00;;;;;;;;;;5003484;28;20084;-81
2023/01/16 02:19:20;;;;;;;2.00;1.13;;;;;;;;;;5001388;28;20044;-80
2023/01/16 02:22:07;;;;;;;1.27;0.95;;;;;;;;;;4998568;28;20469;-80
2023/01/16 02:24:55;;;;;;;1.10;0.93;;;;;;;;;;5016010;28;20030;-80
2023/01/16 02:27:29;;;;;;;1.23;1.00;;;;;;;;;;4998723;28;20480;-80
2023/01/16 02:30:06;;;;;;;1.35;0.98;;;;;;;;;;5015904;28;20451;-80
2023/01/16 02:32:50;;;;;;;1.65;1.27;;;;;;;;;;5016241;28;20037;-80
2023/01/16 02:35:27;;;;;;;1.70;1.00;;;;;;;;;;5015811;28;20053;-80
2023/01/16 02:38:01;;;;;;;1.98;1.05;;;;;;;;;;4982007;28;20041;-80
2023/01/16 02:40:36;;;;;;;1.73;1.10;;;;;;;;;;4998035;28;20041;-80
2023/01/16 02:43:32;;;;;;;3.15;1.20;;;;;;;;;;4998220;28;20117;-80
2023/01/16 02:46:18;;;;;;;1.98;1.08;;;;;;;;;;4998877;28;20388;-80
2023/01/16 02:49:03;;;;;;;1.65;1.02;;;;;;;;;;5015675;28;20044;-80
2023/01/16 02:52:04;;;;;;;1.85;1.13;;;;;;;;;;4998206;28;20029;-80
2023/01/16 02:54:49;;;;;;;1.00;0.90;;;;;;;;;;4997888;28;20389;-80
2023/01/16 02:57:19;;;;;;;2.33;1.20;;;;;;;;;;4998297;28;20026;-80
2023/01/16 02:59:44;;;;;;;1.08;0.98;;;;;;;;;;4998459;28;20471;-80
2023/01/16 03:02:10;;;;;;;1.15;0.93;;;;;;;;;;4998194;28;20109;-80
2023/01/16 03:04:43;;;;;;;1.92;1.00;;;;;;;;;;4981561;28;20079;-80
2023/01/16 03:07:14;;;;;;;3.37;0.97;;;;;;;;;;5015579;28;20025;-80
2023/01/16 03:09:44;;;;;;;2.60;1.00;;;;;;;;;;4997923;28;20042;-80
2023/01/16 03:12:28;;;;;;;2.38;1.42;;;;;;;;;;4997704;28;20598;-80
2023/01/16 03:15:04;;;;;;;;;;;;;;;;;;5015733;28;20468;-77
2023/01/16 03:17:54;;;;;;;3.22;1.35;;;;;;;;;;5013724;28;20503;-79
2023/01/16 03:20:46;;;;;;;1.77;1.00;;;;;;;;;;4981292;28;20421;-79
2023/01/16 03:23:30;;;;;;;8.75;1.13;;;;;;;;;;4984722;28;20064;-79
2023/01/16 03:26:02;;;;;;;3.47;1.30;;;;;;;;;;5014913;28;20033;-79
2023/01/16 03:28:49;;;;;;;2.42;1.05;;;;;;;;;;4997307;28;20407;-79
2023/01/16 03:31:19;;;;;;;2.80;1.00;;;;;;;;;;4997281;28;20036;-80
2023/01/16 03:33:58;;;;;;;0.90;0.90;;;;;;;;;;4997678;28;20032;-80
2023/01/16 03:36:40;;;;;;;2.53;1.20;;;;;;;;;;4981515;28;20022;-80
2023/01/16 03:39:08;;;;;;;1.23;0.80;;;;;;;;;;4997465;28;20026;-80
2023/01/16 03:41:35;;;;;;;2.33;0.90;;;;;;;;;;4997193;28;20496;-80
2023/01/16 03:44:04;;;;;;;2.05;1.30;;;;;;;;;;4997185;28;20044;-80
2023/01/16 03:46:34;;;;;;;2.50;1.10;;;;;;;;;;4996902;28;20510;-80
2023/01/16 03:49:06;;;;;;;2.22;1.08;;;;;;;;;;4997237;28;20033;-80
2023/01/16 03:51:37;;;;;;;2.70;1.10;;;;;;;;;;5014536;28;20030;-80
2023/01/16 03:54:02;;;;;;;2.20;1.02;;;;;;;;;;4980187;28;20033;-81
2023/01/16 03:56:43;;;;;;;1.15;1.05;;;;;;;;;;4997110;28;20029;-80
2023/01/16 03:59:09;;;;;;;2.05;1.20;;;;;;;;;;4980538;28;20018;-80
2023/01/16 04:01:44;;;;;;;1.40;0.90;;;;;;;;;;5014674;28;20400;-80
2023/01/16 04:04:14;;;;;;;4.45;1.08;;;;;;;;;;5014248;28;20026;-80
2023/01/16 04:06:48;;;;;;;1.13;0.90;;;;;;;;;;4996642;28;20128;-80
2023/01/16 04:09:18;;;;;;;3.03;1.00;;;;;;;;;;4996656;28;20548;-80
2023/01/16 04:11:44;;;;;;;1.65;0.90;;;;;;;;;;4996506;28;20041;-80
2023/01/16 04:14:11;;;;;;;1.85;1.00;;;;;;;;;;4996714;28;20021;-80
2023/01/16 04:16:36;;;;;;;1.35;0.95;;;;;;;;;;5019027;28;20518;-81
2023/01/16 04:19:02;;;;;;;3.30;0.98;;;;;;;;;;5016669;28;20112;-80
2023/01/16 04:21:28;;;;;;;1.15;1.00;;;;;;;;;;5016392;28;20079;-80
2023/01/16 04:23:55;;;;;;;1.67;0.90;;;;;;;;;;4999679;28;20049;-80
2023/01/16 04:26:21;;;;;;;2.50;1.05;;;;;;;;;;5033900;28;20068;-80
2023/01/16 04:28:46;;;;;;;5.28;0.95;;;;;;;;;;5033529;28;20044;-80
2023/01/16 04:31:11;;;;;;;1.83;0.90;;;;;;;;;;5033758;28;20071;-80
2023/01/16 04:33:37;;;;;;;1.52;0.95;;;;;;;;;;5033439;28;20079;-80
2023/01/16 04:36:02;;;;;;;1.25;0.95;;;;;;;;;;5033357;28;20468;-80
2023/01/16 04:38:28;;;;;;;0.93;0.80;;;;;;;;;;5033647;28;20088;-80
2023/01/16 04:40:54;;;;;;;0.80;0.80;;;;;;;;;;5033501;28;20087;-80
2023/01/16 04:43:19;;;;;;;2.67;0.90;;;;;;;;;;5033374;28;20056;-80
2023/01/16 04:45:46;;;;;;;1.17;0.80;;;;;;;;;;5034142;28;20030;-80
2023/01/16 04:48:12;;;;;;;1.45;0.80;;;;;;;;;;5015554;28;20041;-80
2023/01/16 04:50:37;;;;;;;1.23;0.90;;;;;;;;;;5033778;28;20085;-80
2023/01/16 04:53:03;;;;;;;1.42;0.80;;;;;;;;;;5033176;28;20033;-80
2023/01/16 04:55:28;;;;;;;0.80;0.70;;;;;;;;;;5033354;28;20183;-80
2023/01/16 04:57:53;;;;;;;0.88;0.80;;;;;;;;;;5033134;28;20038;-80
2023/01/16 05:00:19;;;;;;;0.68;0.63;;;;;;;;;;5033150;28;20029;-80
2023/01/16 05:02:45;;;;;;;1.05;0.95;;;;;;;;;;5032883;28;20112;-80
2023/01/16 05:05:10;;;;;;;1.73;1.20;;;;;;;;;;5031919;28;20113;-80
2023/01/16 05:07:36;;;;;;;1.02;0.73;;;;;;;;;;5033069;28;20469;-80
2023/01/16 05:10:01;;;;;;;0.93;0.82;;;;;;;;;;5015142;28;20437;-80
2023/01/16 05:12:26;;;;;;;2.15;0.90;;;;;;;;;;5015120;28;20075;-79
2023/01/16 05:14:52;;;;;;;2.45;1.02;;;;;;;;;;5031280;28;20025;-79
2023/01/16 05:17:17;;;;;;;7.20;1.42;;;;;;;;;;4998308;28;20140;-77
2023/01/16 05:19:43;;;;;;;3.83;1.40;;;;;;;;;;5015295;28;20111;-79
2023/01/16 05:22:08;;;;;;;5.57;1.20;;;;;;;;;;5015054;28;20107;-78
2023/01/16 05:24:33;;;;;;;3.08;1.13;;;;;;;;;;4998856;28;20029;-79
2023/01/16 05:26:59;;;;;;;4.35;1.50;;;;;;;;;;5032922;28;20025;-78
2023/01/16 05:29:24;;;;;;;4.05;1.77;;;;;;;;;;5031236;28;20418;-78
2023/01/16 05:31:49;;;;;;;6.00;1.30;;;;;;;;;;5032568;28;20029;-77
2023/01/16 05:34:15;;;;;;;4.07;1.38;;;;;;;;;;5032866;28;20061;-79
2023/01/16 05:36:40;;;;;;;3.17;1.45;;;;;;;;;;4998473;28;20036;-78
2023/01/16 05:39:05;;;;;;;3.22;1.67;;;;;;;;;;5031793;28;20403;-77
2023/01/16 05:41:31;;;;;;;8.30;2.00;;;;;;;;;;5031735;28;20026;-77
2023/01/16 05:43:56;;;;;;;15.00;2.67;;;;;;;;;;5031784;28;20025;-77
2023/01/16 05:46:22;;;;;;;5.50;1.85;;;;;;;;;;5014094;28;20041;-76
2023/01/16 05:48:47;;;;;;;10.20;2.60;;;;;;;;;;5014186;28;20550;-76
2023/01/16 05:51:12;;;;;;;8.18;1.92;;;;;;;;;;5031777;28;20092;-79
2023/01/16 05:53:38;;;;;;;4.18;2.00;;;;;;;;;;4997445;28;20385;-79
2023/01/16 05:56:08;;;;;;;5.30;2.00;;;;;;;;;;5014043;28;20036;-78
2023/01/16 05:58:34;;;;;;;5.40;2.38;;;;;;;;;;4997676;28;20432;-78
2023/01/16 06:00:59;;;;;;;9.13;3.13;;;;;;;;;;5031836;28;20053;-80
2023/01/16 06:03:24;;;;;;;16.90;4.50;;;;;;;;;;5032379;28;20029;-79
2023/01/16 06:05:50;;;;;;;23.58;4.50;;;;;;;;;;5033505;28;20033;-78
2023/01/16 06:08:15;;;;;;;15.45;3.60;;;;;;;;;;5037853;28;20515;-78
2023/01/16 06:10:40;;;;;;;14.95;3.70;;;;;;;;;;5017042;28;20029;-78
2023/01/16 06:13:06;;;;;;;23.30;4.68;;;;;;;;;;5015270;28;20029;-79
2023/01/16 06:15:31;;;;;;;14.25;3.70;;;;;;;;;;5016044;28;20037;-78
2023/01/16 06:17:57;;;;;;;21.02;4.68;;;;;;;;;;5021197;28;20128;-80
2023/01/16 06:20:22;;;;;;;18.05;3.80;;;;;;;;;;4999748;28;20468;-78
2023/01/16 06:22:48;;;;;;;17.67;4.15;;;;;;;;;;4999467;28;20080;-79
2023/01/16 06:25:13;;;;;;;13.60;4.00;;;;;;;;;;4982861;28;20030;-79
2023/01/16 06:27:39;;;;;;;18.88;3.78;;;;;;;;;;5016403;28;20120;-79
2023/01/16 06:30:06;;;;;;;15.70;4.53;;;;;;;;;;4998282;28;20128;-80
2023/01/16 06:32:31;;;;;;;11.98;3.47;;;;;;;;;;4998436;28;20508;-80
2023/01/16 06:34:56;;;;;;;12.98;3.42;;;;;;;;;;4998716;28;20026;-79
2023/01/16 06:37:22;;;;;;;10.40;3.55;;;;;;;;;;5016030;28;20137;-80
2023/01/16 06:39:47;;;;;;;13.45;3.40;;;;;;;;;;5016102;28;20033;-80
2023/01/16 06:42:12;;;;;;;11.93;3.28;;;;;;;;;;5015641;28;20030;-81
2023/01/16 06:44:38;;;;;;;10.55;2.88;;;;;;;;;;4998401;28;20488;-81
2023/01/16 06:47:04;;;;;;;8.68;2.83;;;;;;;;;;4997987;28;20029;-80
2023/01/16 06:49:29;;;;;;;11.75;2.83;;;;;;;;;;5015645;28;20022;-79
2023/01/16 06:51:54;;;;;;;6.85;2.85;;;;;;;;;;4998166;28;20032;-79
2023/01/16 06:54:20;;;;;;;6.93;2.40;;;;;;;;;;5015663;28;20037;-79
2023/01/16 06:56:45;;;;;;;8.18;2.42;;;;;;;;;;4997866;28;20026;-80
2023/01/16 06:59:10;;;;;;;6.93;2.45;;;;;;;;;;4997936;28;20030;-79
2023/01/16 07:01:36;;;;;;;6.97;2.40;;;;;;;;;;5015595;28;20030;-79
2023/01/16 07:04:01;;;;;;;5.95;2.15;;;;;;;;;;5015702;28;20026;-80
2023/01/16 07:06:27;;;;;;;7.20;2.50;;;;;;;;;;4981755;28;20034;-80
2023/01/16 07:08:52;;;;;;;7.90;2.42;;;;;;;;;;4997761;28;20088;-79
2023/01/16 07:11:18;;;;;;;5.82;2.25;;;;;;;;;;5015282;28;20037;-79
2023/01/16 07:13:43;;;;;;;7.95;2.20;;;;;;;;;;4997334;28;20117;-80
2023/01/16 07:24:29;;;;;;;4.18;1.90;;;;;;;;;;5000670;28;20138;-79
2023/01/16 07:26:57;;;;;;;4.35;1.50;;;;;;;;;;5013603;28;20026;-79
2023/01/16 07:29:24;;;;;;;5.07;2.00;;;;;;;;;;4997442;28;20052;-80
2023/01/16 07:31:49;;;;;;;3.35;1.75;;;;;;;;;;4997462;28;20033;-80
2023/01/16 07:34:15;;;;;;;3.88;1.60;;;;;;;;;;5015102;28;20036;-80
2023/01/16 07:36:40;;;;;;;5.70;1.85;;;;;;;;;;5014701;28;20030;-80
2023/01/16 07:39:06;;;;;;;2.92;1.52;;;;;;;;;;5014703;28;20120;-79
2023/01/16 07:41:31;;;;;;;4.68;1.70;;;;;;;;;;4997150;28;20033;-81
2023/01/16 07:43:56;;;;;;;3.72;1.50;;;;;;;;;;5013242;28;20036;-80
2023/01/16 07:46:22;;;;;;;3.00;1.30;;;;;;;;;;4997093;28;20112;-80
2023/01/16 07:48:47;;;;;;;4.43;1.52;;;;;;;;;;5013031;28;20354;-80
2023/01/16 07:51:12;;;;;;;2.67;1.50;;;;;;;;;;5014197;28;20034;-80
2023/01/16 07:53:38;;;;;;;4.10;1.30;;;;;;;;;;4996624;28;20030;-79
2023/01/16 07:56:04;;;;;;;3.50;1.83;;;;;;;;;;4980344;28;20334;-80
2023/01/16 07:58:30;;;;;;;2.35;1.40;;;;;;;;;;4996728;28;20041;-79
2023/01/16 08:00:56;;;;;;;2.00;1.20;;;;;;;;;;4996686;28;20029;-79
2023/01/16 08:03:23;;;;;;;4.95;1.60;;;;;;;;;;5014563;28;20107;-79
2023/01/16 08:05:51;;;;;;;2.92;1.42;;;;;;;;;;4996372;28;20488;-79
2023/01/16 08:08:17;;;;;;;2.40;1.30;;;;;;;;;;4980446;28;20049;-79
2023/01/16 08:10:42;;;;;;;3.15;1.50;;;;;;;;;;5013909;28;20495;-79
2023/01/16 08:13:08;;;;;;;1.85;1.33;;;;;;;;;;5012624;28;20048;-79
2023/01/16 08:15:33;;;;;;;3.83;1.33;;;;;;;;;;5014122;28;20058;-80
2023/01/16 08:17:59;;;;;;;1.02;0.90;;;;;;;;;;4996235;28;20394;-80
2023/01/16 08:20:27;;;;;;;5.82;1.30;;;;;;;;;;5013675;28;20113;-80
2023/01/16 08:22:53;;;;;;;2.03;1.10;;;;;;;;;;4995923;28;20469;-80
2023/01/16 08:25:23;;;;;;;1.85;0.90;;;;;;;;;;5013774;28;20105;-80
2023/01/16 08:27:48;;;;;;;2.70;1.13;;;;;;;;;;4996057;28;20026;-80
2023/01/16 08:30:15;;;;;;;1.10;0.90;;;;;;;;;;5013556;28;20037;-80
2023/01/16 08:32:40;;;;;;;2.60;1.20;;;;;;;;;;4979861;28;20124;-79
2023/01/16 08:35:06;;;;;;;2.45;1.00;;;;;;;;;;5013677;28;20114;-80
2023/01/16 08:37:32;;;;;;;1.77;1.17;;;;;;;;;;4996066;28;20129;-80
2023/01/16 08:39:58;;;;;;;8.18;1.20;;;;;;;;;;4995686;28;20485;-79
2023/01/16 08:53:23;;;;;;;4.50;1.00;;;;;;;;;;4998407;28;20181;-80
2023/01/16 08:55:49;;;;;;;1.40;1.00;;;;;;;;;;4979526;28;20200;-80
2023/01/16 08:58:15;;;;;;;2.60;1.10;;;;;;;;;;4995552;28;20088;-79
2023/01/16 09:00:41;;;;;;;4.43;0.93;;;;;;;;;;4979276;28;20456;-79
2023/01/16 09:03:06;;;;;;;1.75;1.13;;;;;;;;;;5013344;28;20026;-80
2023/01/16 09:05:31;;;;;;;3.45;1.08;;;;;;;;;;4995488;28;20061;-78
2023/01/16 09:07:57;;;;;;;1.85;0.80;;;;;;;;;;5013228;28;20045;-81
2023/01/16 09:10:23;;;;;;;1.90;0.93;;;;;;;;;;4995561;28;20033;-79
2023/01/16 09:15:32;;;;;;;1.38;0.90;;;;;;;;;;5013495;28;20060;-80
2023/01/16 09:17:57;;;;;;;1.75;1.17;;;;;;;;;;5027088;28;20493;-79
2023/01/16 09:20:23;;;;;;;4.00;0.85;;;;;;;;;;5033179;28;20034;-80
2023/01/16 09:22:49;;;;;;;1.48;0.80;;;;;;;;;;5015112;28;20041;-80
2023/01/16 09:25:14;;;;;;;1.10;0.90;;;;;;;;;;5015148;28;20033;-80
2023/01/16 09:27:39;;;;;;;2.10;1.05;;;;;;;;;;5031299;28;20029;-79
2023/01/16 09:30:06;;;;;;;3.58;1.23;;;;;;;;;;4998839;28;20116;-77
2023/01/16 09:32:33;;;;;;;0.90;0.70;;;;;;;;;;5014868;28;20030;-79
2023/01/16 09:34:58;;;;;;;1.45;0.88;;;;;;;;;;5032599;28;20129;-80
2023/01/16 09:37:24;;;;;;;2.08;1.20;;;;;;;;;;5032844;28;20065;-80
2023/01/16 09:39:49;;;;;;;2.55;1.23;;;;;;;;;;5014071;28;20025;-78
2023/01/16 09:45:22;;;;;;;2.10;1.38;;;;;;;;;;5032556;28;20408;-78
2023/01/16 09:47:51;;;;;;;3.05;1.10;;;;;;;;;;5014529;28;20071;-80
2023/01/16 09:50:23;;;;;;;4.18;1.50;;;;;;;;;;4998558;28;20112;-78
2023/01/16 09:58:35;;;;;;;3.05;1.10;;;;;;;;;;5020943;28;20064;-80
2023/01/16 10:01:20;;;;;;;2.97;0.95;;;;;;;;;;5019393;28;20434;-80
2023/01/16 10:03:46;;;;;;;4.90;1.00;;;;;;;;;;5018249;28;20117;-79
2023/01/16 10:06:20;;;;;;;3.33;1.10;;;;;;;;;;5035895;28;20045;-80
2023/01/16 10:09:04;;;;;;;1.27;0.65;;;;;;;;;;5018068;28;20029;-80
2023/01/16 10:11:51;;;;;;;2.17;1.20;;;;;;;;;;5017628;28;20032;-80
2023/01/16 10:14:26;;;;;;;2.28;0.80;;;;;;;;;;5017749;28;20455;-79
2023/01/16 10:17:05;;;;;;;1.75;0.82;;;;;;;;;;5030356;28;20054;-79
2023/01/16 10:20:04;;;;;;;2.65;1.00;;;;;;;;;;4982009;28;20396;-80
2023/01/16 10:23:01;;;;;;;2.90;0.98;;;;;;;;;;4997793;28;20045;-79
2023/01/16 10:25:50;;;;;;;1.90;0.82;;;;;;;;;;4998312;28;20021;-80
2023/01/16 10:28:33;;;;;;;3.63;1.08;;;;;;;;;;4981702;28;20144;-80
2023/01/16 10:31:05;;;;;;;1.63;1.00;;;;;;;;;;4981779;28;20033;-80
2023/01/16 10:33:46;;;;;;;2.00;0.82;;;;;;;;;;5015576;28;20045;-80
2023/01/16 10:36:14;;;;;;;4.20;1.25;;;;;;;;;;4998298;28;20049;-81
2023/01/16 10:38:51;;;;;;;1.98;1.05;;;;;;;;;;5015479;28;20029;-79
2023/01/16 10:50:11;;;;;;;4.72;1.20;;;;;;;;;;5000381;28;20096;-79
2023/01/16 10:52:37;;;;;;;1.80;0.88;;;;;;;;;;4981336;28;20447;-79
2023/01/16 10:55:03;;;;;;;1.75;0.80;;;;;;;;;;4997155;28;20033;-79
2023/01/16 10:57:28;;;;;;;1.33;0.93;;;;;;;;;;4980953;28;20461;-79
2023/01/16 10:59:58;;;;;;;1.05;0.70;;;;;;;;;;4997077;28;20034;-79
2023/01/16 11:02:42;;;;;;;4.97;1.00;;;;;;;;;;4996576;28;20392;-80
2023/01/16 11:05:32;;;;;;;2.38;0.82;;;;;;;;;;4996816;28;20465;-79
2023/01/16 11:08:09;;;;;;;4.65;1.15;;;;;;;;;;4989424;28;20040;-78
2023/01/16 11:10:34;;;;;;;5.88;1.05;;;;;;;;;;4996444;28;20030;-79
2023/01/16 11:18:46;;;;;;;1.73;0.90;;;;;;;;;;5018740;28;20079;-79
2023/01/16 11:21:22;;;;;;;1.17;1.00;;;;;;;;;;5033659;28;20045;-79
2023/01/16 11:23:48;;;;;;;2.47;1.08;;;;;;;;;;4999719;28;20162;-79
2023/01/16 11:26:15;;;;;;;2.83;0.93;;;;;;;;;;4999588;28;20112;-79
2023/01/16 11:28:46;;;;;;;2.55;0.93;;;;;;;;;;4999806;28;20122;-79
2023/01/16 11:31:19;;;;;;;3.15;0.90;;;;;;;;;;4999660;28;20120;-80
2023/01/16 11:33:49;;;;;;;2.30;1.27;;;;;;;;;;4999756;28;20025;-79
2023/01/16 11:36:18;;;;;;;3.80;0.90;;;;;;;;;;5016151;28;20540;-79
2023/01/16 11:38:45;;;;;;;2.17;0.85;;;;;;;;;;5016029;28;20029;-78
2023/01/16 11:41:10;;;;;;;4.57;1.27;;;;;;;;;;5015733;28;20121;-79
2023/01/16 11:46:32;;;;;;;2.63;1.10;;;;;;;;;;5004820;28;20040;-78
2023/01/16 11:49:01;;;;;;;2.80;0.90;;;;;;;;;;5015866;28;20040;-78
2023/01/16 11:51:31;;;;;;;2.38;1.10;;;;;;;;;;5015795;28;20498;-77
2023/01/16 11:53:59;;;;;;;2.00;1.10;;;;;;;;;;5033318;28;20025;-78
2023/01/16 11:56:24;;;;;;;1.90;1.02;;;;;;;;;;5015673;28;20140;-77
2023/01/16 11:59:18;;;;;;;2.38;1.25;;;;;;;;;;5015492;28;20072;-78
2023/01/16 12:02:23;;;;;;;2.13;0.95;;;;;;;;;;4999200;28;20032;-78
2023/01/16 12:05:59;;;;;;;1.55;0.95;;;;;;;;;;5033198;28;20489;-78
2023/01/16 12:08:43;;;;;;;2.38;1.10;;;;;;;;;;4956080;28;20023;-78
2023/01/16 12:11:14;;;;;;;2.75;0.90;;;;;;;;;;4955843;28;20030;-78
2023/01/16 12:16:58;;;;;;;1.40;1.30;;;;;;;;;;4971920;28;20126;-79
2023/01/16 12:19:41;;;;;;;;;;;;;;;;;;4956166;28;20553;-76
2023/01/16 12:22:19;;;;;;;0.82;0.70;;;;;;;;;;4971850;28;19933;-79
2023/01/16 12:24:54;;;;;;;1.50;0.95;;;;;;;;;;4971791;28;20023;-78
2023/01/16 12:27:34;;;;;;;0.77;0.77;;;;;;;;;;4955808;28;20038;-79
2023/01/16 12:30:23;;;;;;;1.67;0.90;;;;;;;;;;4971835;28;20043;-79
2023/01/16 12:33:26;;;;;;;1.50;0.98;;;;;;;;;;4955760;28;20068;-78
2023/01/16 12:36:07;;;;;;;1.15;0.70;;;;;;;;;;4956480;28;20031;-79
2023/01/16 12:38:37;;;;;;;2.50;1.10;;;;;;;;;;4973689;28;20448;-79
2023/01/16 12:44:21;;;;;;;4.32;1.10;;;;;;;;;;5012224;28;20049;-80
2023/01/16 12:46:58;;;;;;;3.08;0.90;;;;;;;;;;4995372;28;20022;-78
2023/01/16 12:49:48;;;;;;;0.90;0.70;;;;;;;;;;5013188;28;20052;-77
2023/01/16 12:52:51;;;;;;;1.48;0.82;;;;;;;;;;5013591;28;20018;-79
2023/01/16 12:55:28;;;;;;;1.33;0.90;;;;;;;;;;4995640;28;20036;-79
2023/01/16 12:58:10;;;;;;;3.10;0.98;;;;;;;;;;5012398;28;20122;-79
2023/01/16 13:00:42;;;;;;;7.38;1.05;;;;;;;;;;5012249;28;20200;-78
2023/01/16 13:03:16;;;;;;;3.53;1.17;;;;;;;;;;5012017;28;20040;-78
2023/01/16 13:05:42;;;;;;;0.90;0.85;;;;;;;;;;5013311;28;20123;-78
2023/01/16 13:08:21;;;;;;;1.92;1.00;;;;;;;;;;4995422;28;20033;-78
2023/01/16 13:13:52;;;;;;;2.10;1.00;;;;;;;;;;5011973;28;20456;-78
2023/01/16 13:16:22;;;;;;;2.53;1.15;;;;;;;;;;5011921;28;20519;-78
2023/01/16 13:18:53;;;;;;;1.30;0.70;;;;;;;;;;4996493;28;20133;-78
2023/01/16 13:21:22;;;;;;;2.83;1.00;;;;;;;;;;4979176;28;20042;-78
2023/01/16 13:23:51;;;;;;;1.35;0.93;;;;;;;;;;4995552;28;20084;-79
2023/01/16 13:26:17;;;;;;;2.53;0.98;;;;;;;;;;4981514;28;20044;-79
2023/01/16 13:28:47;;;;;;;5.85;1.00;;;;;;;;;;4999815;28;20030;-80
2023/01/16 13:31:16;;;;;;;1.30;0.77;;;;;;;;;;4999485;28;20079;-79
2023/01/16 13:33:42;;;;;;;2.58;0.82;;;;;;;;;;4999228;28;20030;-78
2023/01/16 13:36:29;;;;;;;1.75;0.93;;;;;;;;;;5016907;28;20061;-78
2023/01/16 13:39:28;;;;;;;1.58;0.98;;;;;;;;;;5016955;28;20028;-78
2023/01/16 13:41:55;;;;;;;3.60;0.82;;;;;;;;;;4988882;28;20114;-78
2023/01/16 13:47:22;;;;;;;2.22;0.90;;;;;;;;;;4996693;28;20126;-78
2023/01/16 13:49:52;;;;;;;1.90;0.80;;;;;;;;;;4997133;28;20583;-79
2023/01/16 13:52:25;;;;;;;1.23;0.90;;;;;;;;;;4963339;28;20131;-79
2023/01/16 13:54:54;;;;;;;0.80;0.70;;;;;;;;;;4963148;28;20446;-79
2023/01/16 13:57:21;;;;;;;2.45;1.00;;;;;;;;;;4979346;28;20033;-79
2023/01/16 13:59:48;;;;;;;1.40;0.90;;;;;;;;;;4996853;28;20165;-79
2023/01/16 14:02:38;;;;;;;1.00;0.82;;;;;;;;;;4996788;28;20061;-79
2023/01/16 14:05:16;;;;;;;1.40;0.70;;;;;;;;;;4963471;28;20545;-79
2023/01/16 14:10:42;;;;;;;2.40;0.60;;;;;;;;;;4997279;28;20161;-79
2023/01/16 14:13:15;;;;;;;4.05;1.08;;;;;;;;;;4979609;28;20034;-79
2023/01/16 14:19:13;;;;;;;1.65;0.90;;;;;;;;;;4997183;28;20138;-78
2023/01/16 14:21:39;;;;;;;;;;;;;;;;;;4997082;28;20054;-79
2023/01/16 14:24:12;;;;;;;4.60;1.15;;;;;;;;;;4997978;28;19910;-79
2023/01/16 14:26:47;;;;;;;1.58;0.80;;;;;;;;;;4981898;28;20029;-79
2023/01/16 14:29:14;;;;;;;3.58;0.75;;;;;;;;;;4998019;28;20096;-79
2023/01/16 14:31:43;;;;;;;3.20;0.93;;;;;;;;;;5015241;28;20110;-78
2023/01/16 14:34:17;;;;;;;0.60;0.60;;;;;;;;;;4997977;28;20053;-78
2023/01/16 14:36:46;;;;;;;1.02;0.77;;;;;;;;;;4997662;28;20384;-78
2023/01/16 14:39:34;;;;;;;1.35;0.90;;;;;;;;;;5015442;28;20026;-78
2023/01/16 14:56:40;;;;;;;1.10;1.00;;;;;;;;;;5000730;28;20037;-78
2023/01/16 14:59:07;;;;;;;1.52;0.85;;;;;;;;;;4997839;28;20030;-78
2023/01/16 15:02:30;;;;;;;1.88;1.00;;;;;;;;;;4969763;28;20057;-78
2023/01/16 15:04:42;;;;;;;1.20;0.95;;;;;;;;;;4968561;28;20038;-78
2023/01/16 15:07:08;;;;;;;1.33;1.17;;;;;;;;;;4978684;28;20038;-78
2023/01/16 15:09:36;;;;;;;1.80;0.98;;;;;;;;;;4977785;28;20085;-78
2023/01/16 15:12:09;;;;;;;2.65;1.17;;;;;;;;;;4978251;28;20034;-79
2023/01/16 15:14:35;;;;;;;1.33;1.23;;;;;;;;;;4978229;28;20034;-79
2023/01/16 15:22:50;;;;;;;1.00;0.90;;;;;;;;;;5014853;28;20064;-79
2023/01/16 15:25:19;;;;;;;0.90;0.90;;;;;;;;;;4997515;28;20017;-79
2023/01/16 15:27:48;;;;;;;1.55;1.10;;;;;;;;;;4997143;28;20109;-79
2023/01/16 15:30:17;;;;;;;1.30;1.02;;;;;;;;;;5014685;28;20104;-79
2023/01/16 15:35:42;;;;;;;1.45;1.20;;;;;;;;;;4999589;28;20556;-79
2023/01/16 15:38:09;;;;;;;0.98;0.98;;;;;;;;;;5014582;28;20396;-79
2023/01/16 15:40:35;;;;;;;5.60;1.15;;;;;;;;;;4996573;28;20026;-79
2023/01/16 15:46:47;;;;;;;;;;;;;;;;;;5003155;28;20041;-79
2023/01/16 15:49:15;;;;;;;3.70;2.05;;;;;;;;;;4983253;28;19909;-80
2023/01/16 15:51:48;;;;;;;3.15;1.70;;;;;;;;;;4977088;28;20033;-79
2023/01/16 15:54:14;;;;;;;2.53;1.75;;;;;;;;;;4962044;28;20050;-79
2023/01/16 15:56:44;;;;;;;5.20;1.40;;;;;;;;;;4977045;28;20438;-78
2023/01/16 15:59:24;;;;;;;3.63;1.25;;;;;;;;;;4976983;28;20026;-78
2023/01/16 16:01:50;;;;;;;14.43;1.80;;;;;;;;;;4977246;28;20431;-78
2023/01/16 16:04:16;;;;;;;6.15;1.80;;;;;;;;;;4960881;28;20022;-78
2023/01/16 16:06:41;;;;;;;6.65;1.90;;;;;;;;;;4977268;28;20031;-78
2023/01/16 16:09:16;;;;;;;4.20;1.40;;;;;;;;;;4977027;28;20037;-78
2023/01/16 16:11:51;;;;;;;2.17;1.60;;;;;;;;;;4977169;28;20033;-78
2023/01/16 16:20:36;;;;;;;2.40;1.88;;;;;;;;;;4979749;28;20080;-79
2023/01/16 16:23:03;;;;;;;2.05;1.30;;;;;;;;;;4994568;28;20384;-78
2023/01/16 16:25:54;;;;;;;4.30;1.50;;;;;;;;;;4994476;28;20056;-78
2023/01/16 16:28:20;;;;;;;1.60;1.50;;;;;;;;;;4976685;28;20470;-79
2023/01/16 16:30:57;;;;;;;5.68;1.67;;;;;;;;;;4976660;28;20065;-79
2023/01/16 16:33:23;;;;;;;2.15;1.38;;;;;;;;;;4976812;28;20426;-78
2023/01/16 16:35:51;;;;;;;3.53;1.80;;;;;;;;;;4976916;28;20070;-78
2023/01/16 16:38:26;;;;;;;3.45;1.77;;;;;;;;;;4960390;28;20092;-78
2023/01/16 16:41:06;;;;;;;4.82;2.00;;;;;;;;;;4960012;28;20095;-80
2023/01/16 16:43:51;;;;;;;4.97;1.90;;;;;;;;;;4994127;28;20026;-79
2023/01/16 16:46:38;;;;;;;4.15;1.90;;;;;;;;;;4978081;28;20060;-78